createdAt,value
2023-05-05T00:00:28.590Z,77.04
2023-05-05T00:01:28.585Z,76.32
2023-05-05T00:02:28.634Z,76.63
2023-05-05T00:03:28.656Z,76.43
2023-05-05T00:04:28.600Z,76.84
2023-05-05T00:05:28.538Z,76.93
2023-05-05T00:06:28.530Z,76.93
2023-05-05T00:07:28.573Z,76.53
2023-05-05T00:08:28.525Z,76.43
2023-05-05T00:09:28.521Z,76.93
2023-05-05T00:10:28.551Z,76.97
2023-05-05T00:11:28.533Z,76.46
2023-05-05T00:12:28.488Z,77.62
2023-05-05T00:13:28.478Z,77.69
2023-05-05T00:14:28.513Z,77.83
2023-05-05T00:15:28.436Z,77.72
2023-05-05T00:16:28.469Z,78.38
2023-05-05T00:17:28.441Z,78.07
2023-05-05T00:18:28.442Z,78.88
2023-05-05T00:19:28.435Z,78.58
2023-05-05T00:20:28.407Z,78.99
2023-05-05T00:21:28.390Z,78.58
2023-05-05T00:22:28.411Z,78.99
2023-05-05T00:23:28.407Z,79.09
2023-05-05T00:24:28.342Z,78.85
2023-05-05T00:25:28.374Z,78.27
2023-05-05T00:26:28.397Z,78.34
2023-05-05T00:27:28.408Z,78.27
2023-05-05T00:28:28.340Z,78.27
2023-05-05T00:29:28.343Z,78.03
2023-05-05T00:30:28.325Z,78.34
2023-05-05T00:31:28.339Z,78.48
2023-05-05T00:32:28.427Z,78.58
2023-05-05T00:33:28.295Z,78.07
2023-05-05T00:34:28.269Z,79.05
2023-05-05T00:35:28.266Z,78.07
2023-05-05T00:36:28.211Z,78.17
2023-05-05T00:37:28.222Z,78.44
2023-05-05T00:38:28.211Z,78.38
2023-05-05T00:39:28.233Z,78.07
2023-05-05T00:40:28.220Z,79.06
2023-05-05T00:41:28.189Z,79.71
2023-05-05T00:42:28.183Z,80.29
2023-05-05T00:43:29.174Z,79.98
2023-05-05T00:44:28.145Z,79.88
2023-05-05T00:45:28.202Z,80.08
2023-05-05T00:46:28.246Z,80.19
2023-05-05T00:47:28.176Z,80.25
2023-05-05T00:48:28.102Z,79.43
2023-05-05T00:49:28.151Z,79.37
2023-05-05T00:50:29.114Z,81.24
2023-05-05T00:51:28.107Z,82.00
2023-05-05T00:52:28.078Z,81.86
2023-05-05T00:53:28.059Z,82.00
2023-05-05T00:54:28.019Z,81.96
2023-05-05T00:55:28.044Z,81.65
2023-05-05T00:56:28.076Z,80.94
2023-05-05T00:57:29.026Z,81.24
2023-05-05T00:58:28.053Z,82.07
2023-05-05T00:59:28.004Z,82.03
2023-05-05T01:00:28.044Z,81.01
2023-05-05T01:01:28.028Z,81.58
2023-05-05T01:02:28.050Z,80.35
2023-05-05T01:03:28.015Z,80.05
2023-05-05T01:04:28.006Z,80.35
2023-05-05T01:05:27.990Z,79.84
2023-05-05T01:06:27.925Z,81.04
2023-05-05T01:07:27.951Z,82.21
2023-05-05T01:08:27.890Z,82.82
2023-05-05T01:09:27.872Z,83.27
2023-05-05T01:10:27.911Z,84.95
2023-05-05T01:11:27.905Z,86.36
2023-05-05T01:12:27.855Z,87.28
2023-05-05T01:13:27.860Z,87.85
2023-05-05T01:14:27.837Z,87.04
2023-05-05T01:15:27.840Z,86.58
2023-05-05T01:16:27.832Z,85.83
2023-05-05T01:17:27.836Z,85.17
2023-05-05T01:18:27.793Z,84.56
2023-05-05T01:19:27.793Z,83.95
2023-05-05T01:20:27.786Z,83.39
2023-05-05T01:21:27.788Z,82.48
2023-05-05T01:22:27.772Z,81.96
2023-05-05T01:23:27.733Z,81.10
2023-05-05T01:24:27.735Z,81.31
2023-05-05T01:25:27.702Z,81.45
2023-05-05T01:26:27.709Z,80.94
2023-05-05T01:27:27.744Z,81.90
2023-05-05T01:28:27.697Z,82.41
2023-05-05T01:29:27.687Z,82.45
2023-05-05T01:30:27.673Z,83.27
2023-05-05T01:31:27.661Z,83.37
2023-05-05T01:32:27.695Z,83.13
2023-05-05T01:33:28.030Z,82.71
2023-05-05T01:34:27.619Z,83.13
2023-05-05T01:35:27.671Z,83.47
2023-05-05T01:36:27.619Z,83.33
2023-05-05T01:37:27.602Z,83.17
2023-05-05T01:38:27.601Z,83.78
2023-05-05T01:39:27.746Z,84.09
2023-05-05T01:40:27.561Z,83.78
2023-05-05T01:41:27.529Z,84.29
2023-05-05T01:42:27.534Z,83.98
2023-05-05T01:43:27.567Z,84.09
2023-05-05T01:44:27.532Z,85.05
2023-05-05T01:45:27.587Z,84.74
2023-05-05T01:46:27.478Z,84.50
2023-05-05T01:47:27.512Z,83.78
2023-05-05T01:48:27.468Z,83.33
2023-05-05T01:49:27.456Z,83.23
2023-05-05T01:50:27.483Z,82.62
2023-05-05T01:51:27.416Z,82.96
2023-05-05T01:52:27.415Z,83.92
2023-05-05T01:53:28.085Z,84.29
2023-05-05T01:54:27.384Z,83.78
2023-05-05T01:55:27.701Z,83.44
2023-05-05T01:56:27.404Z,83.13
2023-05-05T01:57:27.389Z,82.41
2023-05-05T01:58:27.395Z,82.27
2023-05-05T01:59:27.336Z,81.96
2023-05-05T02:00:27.383Z,81.76
2023-05-05T02:01:27.393Z,81.31
2023-05-05T02:02:27.410Z,81.31
2023-05-05T02:03:27.319Z,80.80
2023-05-05T02:04:27.276Z,81.24
2023-05-05T02:05:27.285Z,81.90
2023-05-05T02:06:27.265Z,82.96
2023-05-05T02:07:27.285Z,83.58
2023-05-05T02:08:27.266Z,84.03
2023-05-05T02:09:27.254Z,83.98
2023-05-05T02:10:27.363Z,83.88
2023-05-05T02:11:27.230Z,83.44
2023-05-05T02:12:27.210Z,83.03
2023-05-05T02:13:28.111Z,82.27
2023-05-05T02:14:27.335Z,82.07
2023-05-05T02:15:27.167Z,81.45
2023-05-05T02:16:27.188Z,81.51
2023-05-05T02:17:27.179Z,81.24
2023-05-05T02:18:27.133Z,81.45
2023-05-05T02:19:27.123Z,81.56
2023-05-05T02:20:27.116Z,81.04
2023-05-05T02:21:27.175Z,81.45
2023-05-05T02:22:27.109Z,81.62
2023-05-05T02:23:27.058Z,81.04
2023-05-05T02:24:27.089Z,81.35
2023-05-05T02:25:27.050Z,81.65
2023-05-05T02:26:27.090Z,81.35
2023-05-05T02:27:27.038Z,81.35
2023-05-05T02:28:27.037Z,81.24
2023-05-05T02:29:27.016Z,81.41
2023-05-05T02:30:27.030Z,81.35
2023-05-05T02:31:27.052Z,81.45
2023-05-05T02:32:27.014Z,81.35
2023-05-05T02:33:26.970Z,82.07
2023-05-05T02:34:27.609Z,81.56
2023-05-05T02:35:26.937Z,82.41
2023-05-05T02:36:26.950Z,82.51
2023-05-05T02:37:26.932Z,82.62
2023-05-05T02:38:26.937Z,82.00
2023-05-05T02:39:26.948Z,81.79
2023-05-05T02:40:26.986Z,81.79
2023-05-05T02:41:26.900Z,82.21
2023-05-05T02:42:26.919Z,82.21
2023-05-05T02:43:26.917Z,82.51
2023-05-05T02:44:26.850Z,82.21
2023-05-05T02:45:26.899Z,82.48
2023-05-05T02:46:26.849Z,82.21
2023-05-05T02:47:26.830Z,81.76
2023-05-05T02:48:26.846Z,81.24
2023-05-05T02:49:26.806Z,80.94
2023-05-05T02:50:26.870Z,80.33
2023-05-05T02:51:26.800Z,80.43
2023-05-05T02:52:26.782Z,79.71
2023-05-05T02:53:26.792Z,79.50
2023-05-05T02:54:26.793Z,79.71
2023-05-05T02:55:27.035Z,80.12
2023-05-05T02:56:26.741Z,80.02
2023-05-05T02:57:26.739Z,79.88
2023-05-05T02:58:26.689Z,79.88
2023-05-05T02:59:26.721Z,79.91
2023-05-05T03:00:26.681Z,80.77
2023-05-05T03:01:27.587Z,82.00
2023-05-05T03:02:26.706Z,82.31
2023-05-05T03:03:26.734Z,82.00
2023-05-05T03:04:26.681Z,82.62
2023-05-05T03:05:26.716Z,83.13
2023-05-05T03:06:26.684Z,83.23
2023-05-05T03:07:26.682Z,83.13
2023-05-05T03:08:26.697Z,83.23
2023-05-05T03:09:26.602Z,83.13
2023-05-05T03:10:26.534Z,82.51
2023-05-05T03:11:27.098Z,81.49
2023-05-05T03:12:26.598Z,81.59
2023-05-05T03:13:26.575Z,81.29
2023-05-05T03:14:26.532Z,81.29
2023-05-05T03:15:26.527Z,81.49
2023-05-05T03:16:26.585Z,81.38
2023-05-05T03:17:26.707Z,81.32
2023-05-05T03:18:26.494Z,82.59
2023-05-05T03:19:26.459Z,83.20
2023-05-05T03:20:26.473Z,83.88
2023-05-05T03:21:26.467Z,83.58
2023-05-05T03:22:26.447Z,83.68
2023-05-05T03:23:26.473Z,83.58
2023-05-05T03:24:26.433Z,82.86
2023-05-05T03:25:26.445Z,83.06
2023-05-05T03:26:26.418Z,82.55
2023-05-05T03:27:26.414Z,81.84
2023-05-05T03:28:26.361Z,82.45
2023-05-05T03:29:26.422Z,82.79
2023-05-05T03:30:26.346Z,84.06
2023-05-05T03:31:26.400Z,84.06
2023-05-05T03:32:26.413Z,83.92
2023-05-05T03:33:26.313Z,83.82
2023-05-05T03:34:26.310Z,83.47
2023-05-05T03:35:26.299Z,83.20
2023-05-05T03:36:27.879Z,83.41
2023-05-05T03:37:26.265Z,83.41
2023-05-05T03:38:26.269Z,83.10
2023-05-05T03:39:26.230Z,83.31
2023-05-05T03:40:36.349Z,83.10
2023-05-05T03:41:28.233Z,83.37
2023-05-05T03:42:26.216Z,83.51
2023-05-05T03:43:26.206Z,83.27
2023-05-05T03:44:26.190Z,83.58
2023-05-05T03:45:26.161Z,83.47
2023-05-05T03:46:26.162Z,83.47
2023-05-05T03:47:26.174Z,83.27
2023-05-05T03:48:26.125Z,83.17
2023-05-05T03:49:26.150Z,82.65
2023-05-05T03:50:26.127Z,82.59
2023-05-05T03:51:26.115Z,82.79
2023-05-05T03:52:26.106Z,83.10
2023-05-05T03:53:26.098Z,83.45
2023-05-05T03:54:26.054Z,83.82
2023-05-05T03:55:26.063Z,84.03
2023-05-05T03:56:26.096Z,83.72
2023-05-05T03:57:26.045Z,83.72
2023-05-05T03:58:26.129Z,83.92
2023-05-05T03:59:26.049Z,83.82
2023-05-05T04:00:26.036Z,83.92
2023-05-05T04:01:26.053Z,83.41
2023-05-05T04:02:26.131Z,83.61
2023-05-05T04:03:26.121Z,83.72
2023-05-05T04:04:26.086Z,83.72
2023-05-05T04:05:25.955Z,83.41
2023-05-05T04:06:25.966Z,83.06
2023-05-05T04:07:25.954Z,82.86
2023-05-05T04:08:25.931Z,82.45
2023-05-05T04:09:25.945Z,82.45
2023-05-05T04:10:25.919Z,82.14
2023-05-05T04:11:25.893Z,82.24
2023-05-05T04:12:25.864Z,82.65
2023-05-05T04:13:25.913Z,82.45
2023-05-05T04:14:25.889Z,82.55
2023-05-05T04:15:25.885Z,82.55
2023-05-05T04:16:25.862Z,82.45
2023-05-05T04:17:26.379Z,82.41
2023-05-05T04:18:25.814Z,82.31
2023-05-05T04:19:25.854Z,82.62
2023-05-05T04:20:25.824Z,82.35
2023-05-05T04:21:25.790Z,82.96
2023-05-05T04:22:25.828Z,83.31
2023-05-05T04:23:26.575Z,84.03
2023-05-05T04:24:26.452Z,83.68
2023-05-05T04:25:25.760Z,83.58
2023-05-05T04:26:25.770Z,83.13
2023-05-05T04:27:25.755Z,82.62
2023-05-05T04:28:25.726Z,82.27
2023-05-05T04:29:25.713Z,81.86
2023-05-05T04:30:25.711Z,81.56
2023-05-05T04:31:25.725Z,81.35
2023-05-05T04:32:26.455Z,80.69
2023-05-05T04:33:25.667Z,81.21
2023-05-05T04:34:25.649Z,80.80
2023-05-05T04:35:25.677Z,80.49
2023-05-05T04:36:25.614Z,80.69
2023-05-05T04:37:25.642Z,80.80
2023-05-05T04:38:25.656Z,80.29
2023-05-05T04:39:25.612Z,81.10
2023-05-05T04:40:25.591Z,80.69
2023-05-05T04:41:26.203Z,80.90
2023-05-05T04:42:25.566Z,81.58
2023-05-05T04:43:25.582Z,80.76
2023-05-05T04:44:25.549Z,80.08
2023-05-05T04:45:25.533Z,80.80
2023-05-05T04:46:25.557Z,81.21
2023-05-05T04:47:25.510Z,82.07
2023-05-05T04:48:26.101Z,82.82
2023-05-05T04:49:25.517Z,83.23
2023-05-05T04:50:25.558Z,83.23
2023-05-05T04:51:25.451Z,83.23
2023-05-05T04:52:25.402Z,83.78
2023-05-05T04:53:25.447Z,83.88
2023-05-05T04:54:26.434Z,83.78
2023-05-05T04:55:25.403Z,83.84
2023-05-05T04:56:25.431Z,83.78
2023-05-05T04:57:25.390Z,84.29
2023-05-05T04:58:25.658Z,83.88
2023-05-05T04:59:25.378Z,84.70
2023-05-05T05:00:25.432Z,84.64
2023-05-05T05:01:25.410Z,84.60
2023-05-05T05:02:25.421Z,83.74
2023-05-05T05:03:25.484Z,83.64
2023-05-05T05:04:25.369Z,83.78
2023-05-05T05:05:25.332Z,83.44
2023-05-05T05:06:25.352Z,83.29
2023-05-05T05:07:25.287Z,83.33
2023-05-05T05:08:25.279Z,83.29
2023-05-05T05:09:25.317Z,82.37
2023-05-05T05:10:25.283Z,82.41
2023-05-05T05:11:25.252Z,83.88
2023-05-05T05:12:25.249Z,84.39
2023-05-05T05:13:25.413Z,83.95
2023-05-05T05:14:25.222Z,83.81
2023-05-05T05:15:25.219Z,83.09
2023-05-05T05:16:25.194Z,83.29
2023-05-05T05:17:25.255Z,82.13
2023-05-05T05:18:25.158Z,82.09
2023-05-05T05:19:25.166Z,80.99
2023-05-05T05:20:25.161Z,78.06
2023-05-05T05:21:26.147Z,76.80
2023-05-05T05:22:25.160Z,75.92
2023-05-05T05:23:25.136Z,74.86
2023-05-05T05:24:25.171Z,73.13
2023-05-05T05:25:26.032Z,71.67
2023-05-05T05:26:26.106Z,71.40
2023-05-05T05:27:25.072Z,68.96
2023-05-05T05:28:25.104Z,70.28
2023-05-05T05:29:25.055Z,71.73
2023-05-05T05:30:25.055Z,71.70
2023-05-05T05:31:26.563Z,74.11
2023-05-05T05:32:25.031Z,73.71
2023-05-05T05:33:25.019Z,74.35
2023-05-05T05:34:25.571Z,75.10
2023-05-05T05:35:25.039Z,75.47
2023-05-05T05:36:25.012Z,76.46
2023-05-05T05:37:24.966Z,76.56
2023-05-05T05:38:25.023Z,77.41
2023-05-05T05:39:24.939Z,77.78
2023-05-05T05:40:25.006Z,77.24
2023-05-05T05:41:24.950Z,76.49
2023-05-05T05:42:24.946Z,75.16
2023-05-05T05:43:24.903Z,73.63
2023-05-05T05:44:25.061Z,70.45
2023-05-05T05:45:24.917Z,66.85
2023-05-05T05:46:24.922Z,64.30
2023-05-05T05:47:24.876Z,61.86
2023-05-05T05:48:24.925Z,59.79
2023-05-05T05:49:25.596Z,57.22
2023-05-05T05:50:24.819Z,56.16
2023-05-05T05:51:24.836Z,54.30
2023-05-05T05:52:24.845Z,52.44
2023-05-05T05:53:24.845Z,52.97
2023-05-05T05:54:24.804Z,54.33
2023-05-05T05:55:24.772Z,55.79
2023-05-05T05:56:24.790Z,56.54
2023-05-05T05:57:24.809Z,56.60
2023-05-05T05:58:24.734Z,57.62
2023-05-05T05:59:24.746Z,55.53
2023-05-05T06:00:24.698Z,54.22
2023-05-05T06:01:24.743Z,54.25
2023-05-05T06:02:24.736Z,55.61
2023-05-05T06:03:24.836Z,56.87
2023-05-05T06:04:24.718Z,56.49
2023-05-05T06:05:24.672Z,58.23
2023-05-05T06:06:24.661Z,58.54
2023-05-05T06:07:24.618Z,59.30
2023-05-05T06:08:25.180Z,58.69
2023-05-05T06:09:25.585Z,58.54
2023-05-05T06:10:27.585Z,57.45
2023-05-05T06:11:25.616Z,56.06
2023-05-05T06:12:24.606Z,54.63
2023-05-05T06:13:25.887Z,53.57
2023-05-05T06:14:25.161Z,52.32
2023-05-05T06:15:24.759Z,51.54
2023-05-05T06:16:25.191Z,49.49
2023-05-05T06:17:24.908Z,49.37
2023-05-05T06:18:24.945Z,48.65
2023-05-05T06:19:24.854Z,48.84
2023-05-05T06:20:24.738Z,49.61
2023-05-05T06:21:24.526Z,50.16
2023-05-05T06:22:24.669Z,51.39
2023-05-05T06:23:24.576Z,51.29
2023-05-05T06:24:24.526Z,52.29
2023-05-05T06:25:24.684Z,51.01
2023-05-05T06:26:24.692Z,49.41
2023-05-05T06:27:24.943Z,47.72
2023-05-05T06:28:31.165Z,48.02
2023-05-05T06:29:24.833Z,47.69
2023-05-05T06:30:24.655Z,47.35
2023-05-05T06:31:24.684Z,46.55
2023-05-05T06:32:27.568Z,47.69
2023-05-05T06:33:24.744Z,48.27
2023-05-05T06:34:24.523Z,47.53
2023-05-05T06:35:24.560Z,46.06
2023-05-05T06:36:24.536Z,44.32
2023-05-05T06:37:25.192Z,44.23
2023-05-05T06:38:24.816Z,43.93
2023-05-05T06:39:24.529Z,43.80
2023-05-05T06:40:24.539Z,44.31
2023-05-05T06:41:24.439Z,42.89
2023-05-05T06:42:24.404Z,43.99
2023-05-05T06:43:24.677Z,44.87
2023-05-05T06:44:24.692Z,47.44
2023-05-05T06:45:24.661Z,48.38
2023-05-05T06:46:24.672Z,49.66
2023-05-05T06:48:46.177Z,51.81
2023-05-05T06:48:48.397Z,51.64
2023-05-05T06:49:48.580Z,52.26
2023-05-05T06:52:08.243Z,52.80
2023-05-05T06:52:10.530Z,53.00
2023-05-05T06:54:31.674Z,54.50
2023-05-05T06:54:36.689Z,54.33
2023-05-05T06:56:54.576Z,54.83
2023-05-05T06:58:18.415Z,54.73
2023-05-05T06:58:25.264Z,54.23
2023-05-05T06:59:20.419Z,54.75
2023-05-05T07:00:20.155Z,54.55
2023-05-05T07:01:21.701Z,54.30
2023-05-05T07:02:20.451Z,54.93
2023-05-05T07:03:20.398Z,54.63
2023-05-05T07:04:20.102Z,54.88
2023-05-05T07:06:40.068Z,52.22
2023-05-05T07:06:42.358Z,53.65
2023-05-05T07:07:41.884Z,54.68
2023-05-05T07:08:42.097Z,54.60
2023-05-05T07:09:42.001Z,55.51
2023-05-05T07:10:42.201Z,55.18
2023-05-05T07:11:41.875Z,53.30
2023-05-05T07:12:42.217Z,49.49
2023-05-05T07:13:41.804Z,49.84
2023-05-05T07:14:41.934Z,48.42
2023-05-05T07:15:42.188Z,48.32
2023-05-05T07:16:41.944Z,47.95
2023-05-05T07:17:42.437Z,45.95
2023-05-05T07:18:46.007Z,45.13
2023-05-05T07:19:49.315Z,47.14
2023-05-05T07:20:46.465Z,48.49
2023-05-05T07:21:41.529Z,49.24
2023-05-05T07:22:41.444Z,48.39
2023-05-05T07:23:41.464Z,46.61
2023-05-05T07:24:41.489Z,46.08
2023-05-05T07:25:41.425Z,45.17
2023-05-05T07:26:41.434Z,45.09
2023-05-05T07:27:41.437Z,46.01
2023-05-05T07:28:41.406Z,46.57
2023-05-05T07:29:41.443Z,46.37
2023-05-05T07:30:41.414Z,47.77
2023-05-05T07:31:41.436Z,46.98
2023-05-05T07:32:41.469Z,45.14
2023-05-05T07:33:41.345Z,44.31
2023-05-05T07:34:41.369Z,45.10
2023-05-05T07:35:41.467Z,45.36
2023-05-05T07:36:41.344Z,45.56
2023-05-05T07:37:41.396Z,45.14
2023-05-05T07:38:41.461Z,46.20
2023-05-05T07:39:41.285Z,46.48
2023-05-05T07:40:41.274Z,44.65
2023-05-05T07:41:41.242Z,46.48
2023-05-05T07:42:41.257Z,46.80
2023-05-05T07:43:42.292Z,45.12
2023-05-05T07:44:41.973Z,45.31
2023-05-05T07:45:41.250Z,46.61
2023-05-05T07:46:42.240Z,49.94
2023-05-05T07:47:41.248Z,52.34
2023-05-05T07:48:42.164Z,51.34
2023-05-05T07:49:41.225Z,52.01
2023-05-05T07:50:41.143Z,50.19
2023-05-05T07:51:41.183Z,49.87
2023-05-05T07:52:47.920Z,48.96
2023-05-05T07:53:43.167Z,52.01
2023-05-05T07:54:41.132Z,54.08
2023-05-05T07:55:41.095Z,54.00
2023-05-05T07:56:41.093Z,56.16
2023-05-05T07:57:41.131Z,57.45
2023-05-05T07:58:41.133Z,55.66
2023-05-05T07:59:41.977Z,57.38
2023-05-05T08:00:41.064Z,57.28
2023-05-05T08:01:41.034Z,59.20
2023-05-05T08:02:41.680Z,59.42
2023-05-05T08:03:41.040Z,58.85
2023-05-05T08:04:41.044Z,59.76
2023-05-05T08:05:40.973Z,60.87
2023-05-05T08:06:40.994Z,60.16
2023-05-05T08:07:41.331Z,60.21
2023-05-05T08:08:40.958Z,61.04
2023-05-05T08:09:41.021Z,62.85
2023-05-05T08:10:40.937Z,63.93
2023-05-05T08:11:40.963Z,62.43
2023-05-05T08:12:40.971Z,63.33
2023-05-05T08:13:40.897Z,64.72
2023-05-05T08:14:40.954Z,63.00
2023-05-05T08:15:40.977Z,60.78
2023-05-05T08:16:40.873Z,62.90
2023-05-05T08:17:40.826Z,64.38
2023-05-05T08:18:40.888Z,61.76
2023-05-05T08:19:40.860Z,61.86
2023-05-05T08:20:40.830Z,63.47
2023-05-05T08:21:40.801Z,64.07
2023-05-05T08:22:40.866Z,62.66
2023-05-05T08:23:40.878Z,62.26
2023-05-05T08:24:40.781Z,63.27
2023-05-05T08:25:40.799Z,63.57
2023-05-05T08:26:40.765Z,61.16
2023-05-05T08:27:40.737Z,63.07
2023-05-05T08:28:40.770Z,63.78
2023-05-05T08:29:40.898Z,63.87
2023-05-05T08:30:40.747Z,60.93
2023-05-05T08:31:40.740Z,61.13
2023-05-05T08:32:40.708Z,59.79
2023-05-05T08:33:40.656Z,60.27
2023-05-05T08:34:40.678Z,60.06
2023-05-05T08:35:40.664Z,60.74
2023-05-05T08:36:40.682Z,59.63
2023-05-05T08:37:40.640Z,59.43
2023-05-05T08:38:40.629Z,58.70
2023-05-05T08:39:40.731Z,60.18
2023-05-05T08:40:40.599Z,58.57
2023-05-05T08:41:40.565Z,58.14
2023-05-05T08:42:40.574Z,57.43
2023-05-05T08:43:40.793Z,54.37
2023-05-05T08:44:40.537Z,54.80
2023-05-05T08:45:40.808Z,54.47
2023-05-05T08:46:40.513Z,52.89
2023-05-05T08:47:41.566Z,54.50
2023-05-05T08:48:40.573Z,52.84
2023-05-05T08:49:41.061Z,52.94
2023-05-05T08:50:40.468Z,54.30
2023-05-05T08:51:40.519Z,53.90
2023-05-05T08:52:40.627Z,54.30
2023-05-05T08:53:40.482Z,53.90
2023-05-05T08:54:41.606Z,54.43
2023-05-05T08:55:42.169Z,53.52
2023-05-05T08:56:41.676Z,54.55
2023-05-05T08:57:40.371Z,55.66
2023-05-05T08:58:40.437Z,56.36
2023-05-05T08:59:40.363Z,55.86
2023-05-05T09:00:40.391Z,56.34
2023-05-05T09:01:40.373Z,57.34
2023-05-05T09:02:40.407Z,56.43
2023-05-05T09:03:40.330Z,57.14
2023-05-05T09:04:40.313Z,57.14
2023-05-05T09:05:40.312Z,57.04
2023-05-05T09:06:40.293Z,57.04
2023-05-05T09:07:40.288Z,57.26
2023-05-05T09:08:40.314Z,56.59
2023-05-05T09:09:40.315Z,56.69
2023-05-05T09:10:40.785Z,57.46
2023-05-05T09:11:40.476Z,58.60
2023-05-05T09:12:40.363Z,58.09
2023-05-05T09:13:40.261Z,56.99
2023-05-05T09:14:40.871Z,57.19
2023-05-05T09:15:41.090Z,57.90
2023-05-05T09:16:40.277Z,57.77
2023-05-05T09:17:40.207Z,57.54
2023-05-05T09:18:40.194Z,58.14
2023-05-05T09:19:40.183Z,57.04
2023-05-05T09:20:40.160Z,57.11
2023-05-05T09:21:40.135Z,56.51
2023-05-05T09:22:40.115Z,56.30
2023-05-05T09:23:40.187Z,56.48
2023-05-05T09:24:40.233Z,55.68
2023-05-05T09:25:40.216Z,56.05
2023-05-05T09:26:40.209Z,55.52
2023-05-05T09:27:40.186Z,54.30
2023-05-05T09:28:40.674Z,53.74
2023-05-05T09:29:40.222Z,52.22
2023-05-05T09:30:40.278Z,49.33
2023-05-05T09:31:40.100Z,49.06
2023-05-05T09:32:40.160Z,47.80
2023-05-05T09:33:40.132Z,44.95
2023-05-05T09:34:43.588Z,43.82
2023-05-05T09:35:40.016Z,41.10
2023-05-05T09:36:40.016Z,40.07
2023-05-05T09:37:40.004Z,40.37
2023-05-05T09:38:39.999Z,40.25
2023-05-05T09:39:39.975Z,38.96
2023-05-05T09:40:40.041Z,40.03
2023-05-05T09:41:39.919Z,38.81
2023-05-05T09:42:39.962Z,38.35
2023-05-05T09:43:39.954Z,38.75
2023-05-05T09:44:39.985Z,37.96
2023-05-05T09:45:39.900Z,37.85
2023-05-05T09:46:39.993Z,37.96
2023-05-05T09:47:39.906Z,37.65
2023-05-05T09:48:39.878Z,37.63
2023-05-05T09:49:39.836Z,38.56
2023-05-05T09:50:39.875Z,37.27
2023-05-05T09:51:39.876Z,38.57
2023-05-05T09:52:39.869Z,38.39
2023-05-05T09:53:39.862Z,37.98
2023-05-05T09:54:39.792Z,38.13
2023-05-05T09:55:39.797Z,39.65
2023-05-05T09:56:40.188Z,40.64
2023-05-05T09:57:40.234Z,39.56
2023-05-05T09:58:40.787Z,40.53
2023-05-05T09:59:39.789Z,41.16
2023-05-05T10:00:40.033Z,40.34
2023-05-05T10:01:39.778Z,41.24
2023-05-05T10:02:40.005Z,39.72
2023-05-05T10:03:40.098Z,39.26
2023-05-05T10:04:39.982Z,39.04
2023-05-05T10:05:39.691Z,38.95
2023-05-05T10:06:39.722Z,38.37
2023-05-05T10:07:39.681Z,39.14
2023-05-05T10:08:39.640Z,42.15
2023-05-05T10:09:39.688Z,44.40
2023-05-05T10:10:39.754Z,43.92
2023-05-05T10:11:39.604Z,45.97
2023-05-05T10:12:39.607Z,47.61
2023-05-05T10:13:39.636Z,48.35
2023-05-05T10:14:39.599Z,48.53
2023-05-05T10:15:39.737Z,48.21
2023-05-05T10:16:39.694Z,47.07
2023-05-05T10:17:41.332Z,49.03
2023-05-05T10:18:39.599Z,49.05
2023-05-05T10:19:39.548Z,49.08
2023-05-05T10:20:39.587Z,47.54
2023-05-05T10:21:41.446Z,47.31
2023-05-05T10:22:39.589Z,48.97
2023-05-05T10:23:41.013Z,49.05
2023-05-05T10:24:39.509Z,48.93
2023-05-05T10:25:39.538Z,48.08
2023-05-05T10:26:39.447Z,49.13
2023-05-05T10:27:40.479Z,49.38
2023-05-05T10:28:39.456Z,50.10
2023-05-05T10:29:39.429Z,49.18
2023-05-05T10:30:39.428Z,49.65
2023-05-05T10:31:39.545Z,48.71
2023-05-05T10:33:40.470Z,49.58
2023-05-05T10:34:39.462Z,46.06
2023-05-05T10:35:39.553Z,46.68
2023-05-05T10:36:39.377Z,49.32
2023-05-05T10:37:39.350Z,47.21
2023-05-05T10:38:39.345Z,45.70
2023-05-05T10:39:39.347Z,46.17
2023-05-05T10:40:39.305Z,45.53
2023-05-05T10:41:39.317Z,44.11
2023-05-05T10:42:39.309Z,45.05
2023-05-05T10:43:39.376Z,47.82
2023-05-05T10:44:39.364Z,48.34
2023-05-05T10:45:39.395Z,51.07
2023-05-05T10:46:39.330Z,50.11
2023-05-05T10:47:39.639Z,48.94
2023-05-05T10:48:39.282Z,46.37
2023-05-05T10:49:39.276Z,47.34
2023-05-05T10:50:39.275Z,46.33
2023-05-05T10:51:40.663Z,42.80
2023-05-05T10:52:40.235Z,45.79
2023-05-05T10:53:40.138Z,48.36
2023-05-05T10:54:39.157Z,49.13
2023-05-05T10:55:39.191Z,50.20
2023-05-05T10:56:39.197Z,50.74
2023-05-05T10:57:39.311Z,49.48
2023-05-05T10:58:51.072Z,49.43
2023-05-05T10:59:41.194Z,49.01
2023-05-05T11:00:39.169Z,49.15
2023-05-05T11:01:39.236Z,50.37
2023-05-05T11:02:39.120Z,51.27
2023-05-05T11:03:39.225Z,49.30
2023-05-05T11:04:40.089Z,52.42
2023-05-05T11:05:39.075Z,50.45
2023-05-05T11:06:39.126Z,47.41
2023-05-05T11:07:39.054Z,49.02
2023-05-05T11:08:39.049Z,45.83
2023-05-05T11:09:39.102Z,43.35
2023-05-05T11:10:39.030Z,44.81
2023-05-05T11:11:39.117Z,45.86
2023-05-05T11:12:39.123Z,47.54
2023-05-05T11:13:38.980Z,48.86
2023-05-05T11:14:39.053Z,47.72
2023-05-05T11:15:39.637Z,48.94
2023-05-05T11:16:38.971Z,49.31
2023-05-05T11:17:38.978Z,51.72
2023-05-05T11:18:38.977Z,51.32
2023-05-05T11:19:38.997Z,48.92
2023-05-05T11:20:38.950Z,45.48
2023-05-05T11:21:38.957Z,45.90
2023-05-05T11:22:39.709Z,48.52
2023-05-05T11:23:39.469Z,49.19
2023-05-05T11:24:38.916Z,47.80
2023-05-05T11:25:39.416Z,47.13
2023-05-05T11:26:38.977Z,47.30
2023-05-05T11:27:38.993Z,48.02
2023-05-05T11:28:38.967Z,48.96
2023-05-05T11:29:39.299Z,50.02
2023-05-05T11:30:38.905Z,52.25
2023-05-05T11:31:38.982Z,51.89
2023-05-05T11:32:38.936Z,53.46
2023-05-05T11:33:38.890Z,50.70
2023-05-05T11:34:38.816Z,52.07
2023-05-05T11:35:39.151Z,51.89
2023-05-05T11:36:39.110Z,52.17
2023-05-05T11:37:38.876Z,54.41
2023-05-05T11:38:38.772Z,54.56
2023-05-05T11:39:38.835Z,52.62
2023-05-05T11:40:39.065Z,51.67
2023-05-05T11:41:39.025Z,51.82
2023-05-05T11:42:39.959Z,48.17
2023-05-05T11:43:39.476Z,48.71
2023-05-05T11:44:38.904Z,49.46
2023-05-05T11:45:38.739Z,50.43
2023-05-05T11:46:38.792Z,49.01
2023-05-05T11:47:39.709Z,49.85
2023-05-05T11:48:39.391Z,51.65
2023-05-05T11:49:38.701Z,49.06
2023-05-05T11:50:41.146Z,52.27
2023-05-05T11:51:38.760Z,52.57
2023-05-05T11:52:38.685Z,54.24
2023-05-05T11:53:45.404Z,54.98
2023-05-05T11:54:44.828Z,55.65
2023-05-05T11:55:41.271Z,54.66
2023-05-05T11:56:43.508Z,53.44
2023-05-05T11:57:43.501Z,51.82
2023-05-05T11:58:44.381Z,52.34
2023-05-05T11:59:47.199Z,53.61
2023-05-05T12:00:38.788Z,53.61
2023-05-05T12:01:38.726Z,52.12
2023-05-05T12:02:38.958Z,51.84
2023-05-05T12:03:38.820Z,53.96
2023-05-05T12:04:38.514Z,53.27
2023-05-05T12:05:38.533Z,53.96
2023-05-05T12:06:38.622Z,54.19
2023-05-05T12:07:38.585Z,55.33
2023-05-05T12:08:39.458Z,58.55
2023-05-05T12:09:39.087Z,60.63
2023-05-05T12:12:00.992Z,63.36
2023-05-05T12:12:02.880Z,64.32
2023-05-05T12:14:23.664Z,64.36
2023-05-05T12:15:50.069Z,63.75
2023-05-05T12:17:13.008Z,65.75
2023-05-05T12:17:14.710Z,65.05
2023-05-05T12:18:14.944Z,63.95
2023-05-05T12:22:07.226Z,63.82
2023-05-05T12:22:09.125Z,64.86
2023-05-05T12:23:28.732Z,65.78
2023-05-05T12:24:09.036Z,67.42
2023-05-05T12:25:08.848Z,67.82
2023-05-05T12:26:09.162Z,67.82
2023-05-05T12:28:29.515Z,68.35
2023-05-05T12:28:31.444Z,68.35
2023-05-05T12:32:23.969Z,70.50
2023-05-05T12:33:48.123Z,71.00
2023-05-05T12:33:49.830Z,70.29
2023-05-05T12:34:51.226Z,70.43
2023-05-05T12:37:11.071Z,71.13
2023-05-05T12:37:13.863Z,72.06
2023-05-05T12:38:13.554Z,72.17
2023-05-05T12:39:12.990Z,72.40
2023-05-05T12:40:13.451Z,72.71
2023-05-05T12:41:44.061Z,73.61
2023-05-05T12:42:41.730Z,73.30
2023-05-05T12:43:41.415Z,73.50
2023-05-05T12:44:41.470Z,75.35
2023-05-05T12:45:41.464Z,76.19
2023-05-05T12:46:41.384Z,77.16
2023-05-05T12:47:41.564Z,77.96
2023-05-05T12:48:41.425Z,78.56
2023-05-05T12:49:41.559Z,79.00
2023-05-05T12:50:42.318Z,80.95
2023-05-05T12:51:41.368Z,80.85
2023-05-05T12:52:41.451Z,81.46
2023-05-05T12:53:41.535Z,81.93
2023-05-05T12:54:41.315Z,82.74
2023-05-05T12:55:41.292Z,83.34
2023-05-05T12:56:42.127Z,84.25
2023-05-05T12:57:41.189Z,84.69
2023-05-05T12:58:41.192Z,85.10
2023-05-05T12:59:41.183Z,85.60
2023-05-05T13:00:41.155Z,85.90
2023-05-05T13:01:41.190Z,86.81
2023-05-05T13:02:41.163Z,88.82